ADDS METAR Data INFO
IDs: Format: Raw Decoded Include TAF

Data at: 0037 UTC 21 Jan 2018

METAR for:KCVG (Cincinnati Intl, KY, US)
Text:KCVG 210019Z 21008KT 10SM BKN014 OVC019 08/04 A3010 RMK AO2 T00780039 $
Temperature: 7.8°C ( 46°F)
Dewpoint: 3.9°C ( 39°F) [RH = 76%]
Pressure (altimeter):30.10 inches Hg (1019.4 mb)
Winds:from the SSW (210 degrees) at 9 MPH (8 knots; 4.1 m/s)
Visibility:10 or more sm (16+ km)
Ceiling:1400 feet AGL
Clouds: broken clouds at 1400 feet AGL, overcast cloud deck at 1900 feet AGL
QC Flag:SOME DATA ABOVE MAY BE INACCURATE!!!"$" is an indication the sensor requires maintenance.